createdAt,value
2023-02-03T00:00:41.890Z,3.28
2023-02-03T00:03:27.598Z,4.07
2023-02-03T00:06:13.148Z,4.60
2023-02-03T00:09:00.787Z,4.22
2023-02-03T00:11:45.997Z,2.20
2023-02-03T00:14:33.582Z,2.42
2023-02-03T00:17:18.682Z,2.42
2023-02-03T00:20:04.648Z,2.90
2023-02-03T00:22:50.196Z,2.30
2023-02-03T00:25:35.865Z,2.50
2023-02-03T00:28:21.404Z,2.35
2023-02-03T00:31:14.042Z,2.08
2023-02-03T00:33:59.456Z,2.40
2023-02-03T00:36:48.020Z,2.25
2023-02-03T00:39:37.164Z,2.07
2023-02-03T00:42:22.660Z,2.78
2023-02-03T00:45:08.529Z,2.47
2023-02-03T00:47:54.089Z,1.80
2023-02-03T00:50:39.988Z,1.60
2023-02-03T00:53:25.464Z,2.97
2023-02-03T00:56:12.756Z,1.98
2023-02-03T00:58:58.227Z,2.30
2023-02-03T01:01:43.750Z,1.85
2023-02-03T01:04:29.334Z,1.85
2023-02-03T01:07:14.837Z,1.77
2023-02-03T01:10:00.479Z,1.70
2023-02-03T01:12:46.033Z,2.08
2023-02-03T01:15:31.647Z,1.80
2023-02-03T01:18:16.952Z,1.63
2023-02-03T01:21:07.227Z,1.70
2023-02-03T01:23:53.972Z,1.52
2023-02-03T01:26:39.186Z,1.88
2023-02-03T01:29:24.745Z,1.92
2023-02-03T01:32:10.281Z,1.77
2023-02-03T01:34:55.603Z,1.70
2023-02-03T01:37:41.189Z,2.10
2023-02-03T01:40:26.739Z,2.03
2023-02-03T01:43:28.280Z,1.95
2023-02-03T01:46:37.221Z,1.83
2023-02-03T01:49:27.345Z,1.58
2023-02-03T01:52:12.797Z,1.70
2023-02-03T01:55:00.170Z,1.88
2023-02-03T01:57:51.872Z,1.60
2023-02-03T02:00:37.854Z,1.45
2023-02-03T02:03:27.860Z,1.52
2023-02-03T02:06:14.433Z,1.40
2023-02-03T02:09:01.038Z,1.67
2023-02-03T02:11:46.719Z,1.60
2023-02-03T02:14:33.977Z,1.80
2023-02-03T02:17:40.932Z,1.55
2023-02-03T02:21:09.103Z,1.50
2023-02-03T02:24:22.652Z,1.38
2023-02-03T02:27:35.232Z,1.67
2023-02-03T02:31:00.373Z,1.63
2023-02-03T02:33:48.490Z,1.42
2023-02-03T02:37:04.774Z,1.40
2023-02-03T02:40:07.092Z,1.52
2023-02-03T02:43:20.926Z,1.85
2023-02-03T02:46:24.219Z,1.60
2023-02-03T02:49:16.463Z,1.40
2023-02-03T02:52:05.405Z,1.50
2023-02-03T02:54:54.543Z,1.88
2023-02-03T02:57:44.514Z,1.40
2023-02-03T03:00:31.603Z,1.50
2023-02-03T03:03:20.663Z,1.40
2023-02-03T03:06:11.391Z,1.30
2023-02-03T03:09:06.181Z,1.52
2023-02-03T03:11:58.454Z,1.70
2023-02-03T03:14:48.929Z,2.53
2023-02-03T03:17:40.475Z,1.90
2023-02-03T03:20:27.779Z,1.38
2023-02-03T03:23:23.798Z,1.50
2023-02-03T03:26:20.690Z,1.58
2023-02-03T03:29:27.633Z,1.73
2023-02-03T03:32:13.855Z,1.80
2023-02-03T03:35:01.623Z,1.50
2023-02-03T03:37:56.812Z,1.35
2023-02-03T03:41:04.941Z,1.60
2023-02-03T03:43:55.858Z,2.05
2023-02-03T03:46:51.904Z,1.58
2023-02-03T03:49:40.978Z,1.80
2023-02-03T03:52:30.888Z,1.30
2023-02-03T03:55:19.374Z,1.50
2023-02-03T03:58:09.436Z,1.98
2023-02-03T04:00:58.263Z,1.45
2023-02-03T04:03:48.098Z,1.80
2023-02-03T04:06:33.523Z,1.70
2023-02-03T04:09:18.997Z,2.00
2023-02-03T04:12:06.315Z,1.73
2023-02-03T04:14:51.637Z,1.70
2023-02-03T04:17:37.304Z,1.55
2023-02-03T04:20:23.925Z,2.22
2023-02-03T04:23:09.951Z,1.85
2023-02-03T04:25:55.403Z,1.80
2023-02-03T04:28:40.797Z,2.35
2023-02-03T04:31:26.442Z,1.77
2023-02-03T04:34:12.188Z,1.92
2023-02-03T04:36:57.578Z,1.88
2023-02-03T04:39:43.148Z,1.95
2023-02-03T04:42:29.087Z,2.78
2023-02-03T04:45:14.276Z,1.95
2023-02-03T04:47:59.745Z,1.80
2023-02-03T04:50:45.228Z,2.10
2023-02-03T04:53:31.501Z,1.90
2023-02-03T04:56:16.913Z,1.92
2023-02-03T04:59:02.560Z,2.10
2023-02-03T05:01:47.797Z,1.48
2023-02-03T05:04:33.269Z,2.25
2023-02-03T05:07:18.794Z,2.00
2023-02-03T05:10:04.468Z,1.70
2023-02-03T05:12:49.808Z,1.52
2023-02-03T05:15:35.369Z,1.40
2023-02-03T05:18:20.764Z,1.60
2023-02-03T05:21:06.609Z,1.80
2023-02-03T05:23:52.139Z,2.30
2023-02-03T05:26:37.633Z,1.95
2023-02-03T05:29:23.138Z,2.50
2023-02-03T05:32:08.642Z,4.55
2023-02-03T05:34:54.177Z,4.43
2023-02-03T05:37:39.540Z,2.53
2023-02-03T05:40:44.280Z,2.17
2023-02-03T05:43:29.711Z,2.10
2023-02-03T05:46:15.224Z,2.70
2023-02-03T05:49:00.846Z,2.10
2023-02-03T05:51:47.158Z,1.92
2023-02-03T05:54:32.535Z,1.60
2023-02-03T05:57:19.244Z,1.90
2023-02-03T06:00:07.272Z,2.03
2023-02-03T06:02:59.547Z,2.00
2023-02-03T06:05:44.994Z,1.92
2023-02-03T06:08:30.778Z,2.05
2023-02-03T06:11:16.140Z,2.45
2023-02-03T06:14:02.131Z,1.85
2023-02-03T06:16:47.387Z,1.95
2023-02-03T06:19:32.628Z,2.53
2023-02-03T06:22:18.253Z,2.15
2023-02-03T06:25:04.575Z,1.80
2023-02-03T06:27:50.623Z,2.20
2023-02-03T06:30:37.159Z,2.13
2023-02-03T06:33:22.895Z,2.40
2023-02-03T06:36:08.454Z,2.33
2023-02-03T06:38:54.171Z,3.00
2023-02-03T06:41:39.615Z,2.28
2023-02-03T06:44:25.211Z,2.08
2023-02-03T06:47:10.670Z,2.30
2023-02-03T06:49:56.392Z,2.15
2023-02-03T06:52:42.355Z,2.22
2023-02-03T06:55:27.819Z,2.20
2023-02-03T06:58:13.668Z,2.53
2023-02-03T07:00:58.754Z,1.77
2023-02-03T07:03:44.464Z,2.10
2023-02-03T07:06:32.344Z,2.20
2023-02-03T07:09:17.791Z,2.08
2023-02-03T07:12:03.216Z,2.63
2023-02-03T07:14:48.770Z,2.20
2023-02-03T07:17:34.359Z,2.30
2023-02-03T07:20:20.749Z,2.72
2023-02-03T07:23:06.024Z,2.08
2023-02-03T07:25:51.525Z,2.08
2023-02-03T07:28:37.205Z,2.42
2023-02-03T07:31:22.784Z,2.58
2023-02-03T07:34:08.284Z,2.50
2023-02-03T07:36:53.668Z,2.55
2023-02-03T07:39:39.090Z,2.20
2023-02-03T07:42:24.676Z,2.22
2023-02-03T07:45:12.700Z,2.53
2023-02-03T07:47:58.403Z,2.05
2023-02-03T07:50:45.638Z,2.35
2023-02-03T07:53:31.043Z,2.40
2023-02-03T07:56:16.763Z,2.60
2023-02-03T07:59:02.272Z,2.80
2023-02-03T08:01:47.683Z,2.33
2023-02-03T08:04:33.234Z,2.40
2023-02-03T08:07:18.689Z,2.83
2023-02-03T08:10:04.886Z,3.35
2023-02-03T08:12:53.600Z,2.63
2023-02-03T08:15:38.965Z,2.22
2023-02-03T08:18:24.639Z,2.08
2023-02-03T08:21:10.064Z,3.63
2023-02-03T08:23:55.706Z,2.65
2023-02-03T08:26:41.070Z,2.28
2023-02-03T08:29:26.756Z,2.30
2023-02-03T08:32:14.457Z,2.92
2023-02-03T08:35:00.015Z,2.50
2023-02-03T08:37:45.662Z,4.40
2023-02-03T08:40:31.516Z,3.80
2023-02-03T08:43:16.854Z,2.90
2023-02-03T08:46:04.383Z,3.60
2023-02-03T08:48:50.165Z,3.58
2023-02-03T08:51:35.366Z,3.28
2023-02-03T08:54:22.006Z,3.67
2023-02-03T08:57:07.886Z,3.20
2023-02-03T08:59:53.351Z,3.30
2023-02-03T09:02:39.040Z,2.67
2023-02-03T09:05:24.400Z,3.53
2023-02-03T09:08:10.030Z,2.83
2023-02-03T09:10:55.749Z,2.38
2023-02-03T09:13:45.708Z,2.63
2023-02-03T09:16:31.324Z,2.03
2023-02-03T09:19:16.845Z,2.50
2023-02-03T09:22:02.555Z,2.70
2023-02-03T09:24:50.579Z,2.25
2023-02-03T09:27:36.323Z,3.92
2023-02-03T09:30:21.767Z,4.72
2023-02-03T09:33:07.204Z,3.45
2023-02-03T09:35:57.402Z,3.28
2023-02-03T09:41:48.019Z,3.28
2023-02-03T09:44:42.745Z,2.72
2023-02-03T09:47:32.801Z,3.60
2023-02-03T09:50:27.872Z,3.08
2023-02-03T09:53:43.314Z,2.80
2023-02-03T09:56:36.580Z,3.67
2023-02-03T09:59:26.672Z,4.13
2023-02-03T10:05:25.315Z,3.35
2023-02-03T10:08:35.011Z,3.15
2023-02-03T10:11:37.547Z,2.60
2023-02-03T10:14:25.721Z,2.78
2023-02-03T10:17:37.771Z,3.28
2023-02-03T10:20:33.429Z,2.80
2023-02-03T10:23:31.555Z,2.80
2023-02-03T10:26:21.381Z,2.60
2023-02-03T10:29:32.941Z,2.97
2023-02-03T10:32:18.393Z,2.20
2023-02-03T10:35:10.950Z,2.20
2023-02-03T10:37:58.575Z,3.00
2023-02-03T10:40:44.310Z,2.92
2023-02-03T10:43:47.383Z,3.17
2023-02-03T10:46:35.976Z,3.38
2023-02-03T10:49:22.388Z,4.20
2023-02-03T10:52:07.564Z,3.95
2023-02-03T10:54:53.305Z,7.78
2023-02-03T10:57:42.072Z,8.00
2023-02-03T11:00:30.405Z,7.55
2023-02-03T11:03:29.243Z,6.72
2023-02-03T11:06:17.276Z,6.45
2023-02-03T11:09:21.449Z,6.63
2023-02-03T11:12:13.331Z,5.80
2023-02-03T11:15:06.131Z,8.18
2023-02-03T11:17:51.824Z,6.43
2023-02-03T11:20:37.332Z,8.05
2023-02-03T11:23:23.575Z,9.98
2023-02-03T11:26:12.401Z,10.38
2023-02-03T11:29:00.756Z,8.93
2023-02-03T11:31:53.308Z,6.82
2023-02-03T11:34:39.489Z,9.10
2023-02-03T11:37:41.328Z,3.05
2023-02-03T11:40:34.303Z,4.78
2023-02-03T11:43:22.862Z,5.18
2023-02-03T11:46:09.839Z,7.80
2023-02-03T11:49:08.858Z,6.90
2023-02-03T11:52:32.766Z,5.35
2023-02-03T11:55:21.103Z,4.55
2023-02-03T11:58:24.230Z,5.32
2023-02-03T12:01:44.108Z,1.90
2023-02-03T12:05:00.401Z,4.35
2023-02-03T12:08:20.053Z,2.95
2023-02-03T12:11:40.466Z,1.85
2023-02-03T12:14:44.606Z,4.78
2023-02-03T12:17:48.679Z,2.20
2023-02-03T12:20:45.807Z,1.60
2023-02-03T12:23:52.786Z,1.88
2023-02-03T12:26:59.097Z,2.35
2023-02-03T12:29:51.305Z,1.60
2023-02-03T12:32:44.582Z,2.88
2023-02-03T12:35:39.833Z,2.20
2023-02-03T12:38:35.234Z,3.78
2023-02-03T12:41:29.247Z,4.65
2023-02-03T12:44:31.256Z,3.00
2023-02-03T12:47:37.265Z,3.35
2023-02-03T12:50:50.444Z,5.38
2023-02-03T12:53:41.257Z,3.42
2023-02-03T12:56:34.344Z,3.60
2023-02-03T12:59:24.782Z,3.40
2023-02-03T13:02:18.804Z,3.67
2023-02-03T13:05:26.683Z,5.07
2023-02-03T13:08:20.937Z,3.50
2023-02-03T13:11:43.764Z,2.50
2023-02-03T13:14:34.834Z,2.70
2023-02-03T13:17:42.929Z,3.90
2023-02-03T13:20:31.659Z,1.90
2023-02-03T13:23:17.441Z,3.88
2023-02-03T13:26:12.801Z,2.20
2023-02-03T13:29:03.668Z,3.67
2023-02-03T13:32:16.296Z,3.92
2023-02-03T13:35:18.703Z,4.45
2023-02-03T13:38:43.893Z,3.70
2023-02-03T13:41:45.151Z,3.47
2023-02-03T13:44:30.914Z,3.17
2023-02-03T13:47:29.026Z,3.50
2023-02-03T13:50:24.617Z,2.97
2023-02-03T13:53:22.319Z,1.75
2023-02-03T13:56:16.557Z,2.85
2023-02-03T13:59:13.989Z,2.78
2023-02-03T14:02:27.170Z,3.58
2023-02-03T14:05:42.372Z,2.55
2023-02-03T14:08:27.542Z,2.45
2023-02-03T14:11:34.988Z,1.80
2023-02-03T14:14:22.892Z,2.42
2023-02-03T14:17:34.850Z,1.88
2023-02-03T14:20:26.696Z,1.83
2023-02-03T14:23:25.827Z,1.88
2023-02-03T14:26:19.197Z,1.92
2023-02-03T14:29:06.178Z,1.60
2023-02-03T14:32:02.616Z,2.00
2023-02-03T14:34:50.025Z,1.95
2023-02-03T14:37:35.558Z,1.90
2023-02-03T14:41:00.709Z,1.35
2023-02-03T14:44:01.491Z,1.40
2023-02-03T14:47:08.964Z,1.40
2023-02-03T14:50:23.162Z,1.85
2023-02-03T14:53:21.740Z,1.52
2023-02-03T14:56:58.876Z,1.95
2023-02-03T14:59:55.678Z,1.92
2023-02-03T15:03:06.838Z,2.05
2023-02-03T15:06:03.775Z,1.75
2023-02-03T15:08:49.490Z,1.77
2023-02-03T15:11:44.923Z,2.90
2023-02-03T15:14:33.936Z,4.53
2023-02-03T15:17:27.817Z,2.05
2023-02-03T15:20:38.747Z,1.52
2023-02-03T15:23:29.975Z,1.98
2023-02-03T15:26:24.264Z,2.10
2023-02-03T15:29:32.279Z,1.67
2023-02-03T15:32:30.180Z,1.55
2023-02-03T15:35:17.950Z,2.40
2023-02-03T15:38:14.357Z,1.70
2023-02-03T15:40:59.799Z,2.03
2023-02-03T15:43:47.270Z,1.83
2023-02-03T15:46:43.114Z,3.05
2023-02-03T15:49:31.831Z,2.50
2023-02-03T15:52:21.919Z,2.75
2023-02-03T15:55:26.226Z,2.00
2023-02-03T15:58:27.728Z,2.55
2023-02-03T16:01:17.739Z,1.77
2023-02-03T16:04:11.431Z,2.28
2023-02-03T16:06:57.265Z,1.48
2023-02-03T16:09:42.827Z,1.80
2023-02-03T16:12:32.765Z,1.63
2023-02-03T16:15:23.691Z,1.58
2023-02-03T16:18:18.016Z,2.42
2023-02-03T16:21:05.453Z,2.72
2023-02-03T16:23:50.997Z,3.08
2023-02-03T16:26:38.386Z,1.77
2023-02-03T16:29:48.026Z,1.80
2023-02-03T16:32:52.098Z,2.22
2023-02-03T16:35:56.022Z,1.88
2023-02-03T16:39:07.733Z,1.88
2023-02-03T16:42:11.989Z,2.25
2023-02-03T16:45:17.533Z,2.47
2023-02-03T16:48:22.696Z,2.25
2023-02-03T16:51:17.079Z,2.00
2023-02-03T16:54:02.934Z,2.50
2023-02-03T16:56:49.359Z,2.15
2023-02-03T16:59:34.853Z,2.00
2023-02-03T17:02:20.355Z,2.03
2023-02-03T17:05:06.057Z,1.98
2023-02-03T17:07:51.251Z,1.73
2023-02-03T17:10:38.588Z,1.73
2023-02-03T17:13:24.564Z,1.70
2023-02-03T17:16:13.834Z,2.00
2023-02-03T17:18:59.762Z,2.00
2023-02-03T17:21:45.763Z,2.05
2023-02-03T17:24:31.265Z,1.80
2023-02-03T17:27:16.751Z,2.13
2023-02-03T17:30:02.328Z,2.10
2023-02-03T17:32:47.947Z,1.65
2023-02-03T17:35:33.339Z,1.80
2023-02-03T17:38:18.783Z,1.75
2023-02-03T17:53:23.967Z,1.60
2023-02-03T17:56:11.961Z,2.03
2023-02-03T17:58:59.633Z,1.50
2023-02-03T18:01:46.721Z,1.77
2023-02-03T18:04:32.057Z,1.88
2023-02-03T18:07:17.348Z,1.67
2023-02-03T18:10:03.029Z,2.30
2023-02-03T18:12:48.480Z,1.58
2023-02-03T18:15:34.228Z,1.70
2023-02-03T18:18:21.266Z,1.58
2023-02-03T18:21:07.518Z,1.95
2023-02-03T18:23:58.404Z,2.08
2023-02-03T18:26:49.862Z,1.88
2023-02-03T18:29:35.561Z,1.92
2023-02-03T18:32:21.108Z,1.48
2023-02-03T18:35:11.601Z,1.33
2023-02-03T18:37:56.880Z,1.70
2023-02-03T18:40:42.381Z,2.00
2023-02-03T18:43:27.866Z,1.60
2023-02-03T18:46:18.763Z,1.83
2023-02-03T18:49:09.218Z,1.77
2023-02-03T18:51:54.957Z,1.92
2023-02-03T18:54:40.659Z,1.83
2023-02-03T18:57:26.463Z,2.03
2023-02-03T19:00:14.047Z,2.25
2023-02-03T19:02:59.372Z,1.70
2023-02-03T19:05:44.902Z,2.17
2023-02-03T19:08:30.349Z,2.25
2023-02-03T19:11:16.186Z,2.10
2023-02-03T19:14:01.906Z,3.15
2023-02-03T19:16:50.297Z,2.53
2023-02-03T19:19:35.959Z,2.58
2023-02-03T19:22:21.422Z,2.05
2023-02-03T19:25:07.028Z,2.30
2023-02-03T19:27:52.708Z,2.50
2023-02-03T19:30:38.378Z,2.28
2023-02-03T19:33:24.403Z,2.05
2023-02-03T19:36:10.870Z,1.90
2023-02-03T19:38:56.793Z,2.60
2023-02-03T19:41:42.493Z,2.70
2023-02-03T19:44:27.866Z,2.60
2023-02-03T19:47:13.490Z,2.53
2023-02-03T19:49:58.774Z,1.90
2023-02-03T19:52:44.350Z,2.13
2023-02-03T19:55:31.879Z,2.42
2023-02-03T19:58:17.133Z,2.10
2023-02-03T20:01:02.692Z,2.38
2023-02-03T20:03:48.563Z,3.50
2023-02-03T20:06:34.273Z,3.65
2023-02-03T20:09:19.821Z,3.83
2023-02-03T20:12:05.457Z,3.45
2023-02-03T20:14:50.956Z,3.90
2023-02-03T20:17:36.702Z,2.58
2023-02-03T20:20:22.698Z,3.70
2023-02-03T20:23:08.436Z,3.33
2023-02-03T20:25:54.730Z,3.30
2023-02-03T20:28:40.418Z,3.53
2023-02-03T20:31:26.242Z,3.33
2023-02-03T20:34:12.084Z,3.45
2023-02-03T20:36:58.853Z,3.10
2023-02-03T20:39:44.713Z,2.88
2023-02-03T20:42:30.282Z,5.78
2023-02-03T20:45:17.952Z,4.57
2023-02-03T20:48:03.384Z,3.00
2023-02-03T20:50:50.170Z,3.00
2023-02-03T20:53:36.807Z,5.35
2023-02-03T20:56:22.923Z,3.80
2023-02-03T20:59:13.551Z,7.28
2023-02-03T21:02:07.731Z,2.63
2023-02-03T21:04:59.417Z,3.20
2023-02-03T21:07:44.600Z,2.25
2023-02-03T21:10:30.756Z,2.30
2023-02-03T21:13:24.507Z,3.47
2023-02-03T21:16:23.159Z,2.55
2023-02-03T21:19:14.261Z,2.58
2023-02-03T21:22:12.144Z,2.67
2023-02-03T21:24:59.871Z,2.60
2023-02-03T21:27:47.017Z,1.92
2023-02-03T21:30:34.928Z,2.33
2023-02-03T21:33:40.516Z,2.40
2023-02-03T21:36:30.110Z,2.53
2023-02-03T21:39:26.694Z,1.95
2023-02-03T21:42:41.412Z,2.45
2023-02-03T21:45:42.017Z,2.75
2023-02-03T21:48:42.869Z,2.28
2023-02-03T21:51:33.025Z,2.20
2023-02-03T21:54:34.179Z,2.40
2023-02-03T21:57:20.738Z,1.92
2023-02-03T22:00:47.880Z,2.42
2023-02-03T22:03:40.526Z,2.42
2023-02-03T22:06:41.830Z,2.67
2023-02-03T22:09:27.667Z,2.30
2023-02-03T22:12:13.279Z,2.67
2023-02-03T22:14:58.663Z,2.40
2023-02-03T22:17:44.113Z,2.30
2023-02-03T22:20:29.929Z,2.60
2023-02-03T22:23:15.626Z,2.50
2023-02-03T22:26:01.267Z,2.33
2023-02-03T22:28:46.796Z,2.95
2023-02-03T22:31:32.616Z,2.40
2023-02-03T22:34:19.119Z,2.80
2023-02-03T22:37:04.863Z,3.30
2023-02-03T22:39:50.340Z,3.90
2023-02-03T22:42:35.946Z,2.85
2023-02-03T22:45:21.796Z,2.90
2023-02-03T22:48:07.281Z,2.83
2023-02-03T22:50:52.757Z,3.42
2023-02-03T22:53:39.692Z,2.70
2023-02-03T22:56:25.350Z,2.70
2023-02-03T22:59:10.764Z,2.70
2023-02-03T23:01:56.405Z,3.00
2023-02-03T23:04:41.908Z,3.00
2023-02-03T23:07:27.388Z,2.95
2023-02-03T23:10:22.415Z,2.78
2023-02-03T23:13:08.163Z,3.13
2023-02-03T23:15:53.660Z,2.70
2023-02-03T23:18:39.174Z,3.15
2023-02-03T23:21:24.749Z,2.80
2023-02-03T23:24:10.030Z,2.83
2023-02-03T23:26:55.539Z,3.00
2023-02-03T23:29:41.381Z,3.13
2023-02-03T23:32:26.746Z,4.30
2023-02-03T23:35:30.642Z,3.22
2023-02-03T23:38:17.155Z,4.00
2023-02-03T23:41:02.536Z,4.05
2023-02-03T23:43:48.369Z,3.30
2023-02-03T23:46:33.766Z,3.80
2023-02-03T23:49:19.360Z,3.55
2023-02-03T23:52:04.976Z,3.58
2023-02-03T23:54:50.548Z,3.33
2023-02-03T23:57:36.131Z,3.03
